createdAt,value
2022-09-16T02:11:15.165Z,936.26
2022-09-16T02:12:16.114Z,936.25
2022-09-16T02:13:16.185Z,936.30
2022-09-16T02:14:16.197Z,936.36
2022-09-16T02:15:16.160Z,936.44
2022-09-16T02:16:16.146Z,936.50
2022-09-16T02:17:16.128Z,936.47
2022-09-16T02:18:16.085Z,936.45
2022-09-16T02:19:16.095Z,936.40
2022-09-16T02:20:16.044Z,936.33
2022-09-16T02:21:16.051Z,936.21
2022-09-16T02:22:16.021Z,936.14
2022-09-16T02:23:16.046Z,936.15
2022-09-16T02:24:16.029Z,936.09
2022-09-16T02:25:16.052Z,936.00
2022-09-16T02:26:15.989Z,935.88
2022-09-16T02:27:16.030Z,935.84
2022-09-16T02:28:16.084Z,935.83
2022-09-16T02:29:15.953Z,935.83
2022-09-16T02:30:22.110Z,935.81
2022-09-16T02:31:16.700Z,935.75
2022-09-16T02:32:15.954Z,935.71
2022-09-16T02:33:15.874Z,935.75
2022-09-16T02:34:15.944Z,935.76
2022-09-16T02:35:15.905Z,935.80
2022-09-16T02:36:15.887Z,935.82
2022-09-16T02:37:15.874Z,935.84
2022-09-16T02:38:15.903Z,935.78
2022-09-16T02:39:15.838Z,935.82
2022-09-16T02:40:15.977Z,935.82
2022-09-16T02:41:15.889Z,935.89
2022-09-16T02:42:15.832Z,935.90
2022-09-16T02:43:15.829Z,935.93
2022-09-16T02:44:15.795Z,935.91
2022-09-16T02:45:15.784Z,935.95
2022-09-16T02:46:15.837Z,935.91
2022-09-16T02:47:15.764Z,935.93
2022-09-16T02:48:16.462Z,935.98
2022-09-16T02:49:16.574Z,936.02
2022-09-16T02:50:15.693Z,936.06
2022-09-16T02:51:15.758Z,936.06
2022-09-16T02:52:15.727Z,936.04
2022-09-16T02:53:15.703Z,936.02
2022-09-16T02:54:16.472Z,936.01
2022-09-16T02:55:15.653Z,936.00
2022-09-16T02:56:15.644Z,936.09
2022-09-16T02:57:15.677Z,935.94
2022-09-16T02:58:15.684Z,935.98
2022-09-16T02:59:15.609Z,935.94
2022-09-16T03:00:15.597Z,935.93
2022-09-16T03:01:15.592Z,935.87
2022-09-16T03:02:15.582Z,935.83
2022-09-16T03:03:15.605Z,935.75
2022-09-16T03:04:15.599Z,935.61
2022-09-16T03:05:15.542Z,935.48
2022-09-16T03:06:15.517Z,935.37
2022-09-16T03:07:15.519Z,935.30
2022-09-16T03:08:15.524Z,935.31
2022-09-16T03:09:15.535Z,935.39
2022-09-16T03:10:15.528Z,935.39
2022-09-16T03:11:15.446Z,935.46
2022-09-16T03:12:15.451Z,935.56
2022-09-16T03:13:16.222Z,935.61
2022-09-16T03:14:15.473Z,935.64
2022-09-16T03:15:15.421Z,935.71
2022-09-16T03:16:15.625Z,935.76
2022-09-16T03:17:15.414Z,935.84
2022-09-16T03:18:15.384Z,935.79
2022-09-16T03:19:15.371Z,935.86
2022-09-16T03:20:15.412Z,935.88
2022-09-16T03:21:15.347Z,935.93
2022-09-16T03:22:15.339Z,935.89
2022-09-16T03:23:16.181Z,935.94
2022-09-16T03:24:15.351Z,935.91
2022-09-16T03:25:15.295Z,935.96
2022-09-16T03:26:15.335Z,935.98
2022-09-16T03:27:15.275Z,935.91
2022-09-16T03:28:15.383Z,935.82
2022-09-16T03:29:15.283Z,935.64
2022-09-16T03:30:15.232Z,935.56
2022-09-16T03:31:15.314Z,935.43
2022-09-16T03:32:15.278Z,935.48
2022-09-16T03:33:15.213Z,935.48
2022-09-16T03:34:16.134Z,935.46
2022-09-16T03:35:15.918Z,935.51
2022-09-16T03:36:15.246Z,935.60
2022-09-16T03:37:15.250Z,935.63
2022-09-16T03:38:16.142Z,935.66
2022-09-16T03:39:15.185Z,935.70
2022-09-16T03:40:15.215Z,935.66
2022-09-16T03:41:15.181Z,935.57
2022-09-16T03:42:15.147Z,935.45
2022-09-16T03:43:15.152Z,935.43
2022-09-16T03:44:15.133Z,935.32
2022-09-16T03:45:15.098Z,935.28
2022-09-16T03:46:15.179Z,935.28
2022-09-16T03:47:15.127Z,935.33
2022-09-16T03:48:15.023Z,935.35
2022-09-16T03:49:15.091Z,935.45
2022-09-16T03:50:15.020Z,935.44
2022-09-16T03:51:15.062Z,935.43
2022-09-16T03:52:15.014Z,935.31
2022-09-16T03:53:15.020Z,935.21
2022-09-16T03:54:15.767Z,935.11
2022-09-16T03:55:14.976Z,935.06
2022-09-16T03:56:15.012Z,935.02
2022-09-16T03:57:14.987Z,935.05
2022-09-16T03:58:14.975Z,935.10
2022-09-16T03:59:21.415Z,935.15
2022-09-16T04:00:15.009Z,935.24
2022-09-16T04:01:14.969Z,935.26
2022-09-16T04:02:14.983Z,935.21
2022-09-16T04:03:14.925Z,935.15
2022-09-16T04:04:15.625Z,935.20
2022-09-16T04:05:14.896Z,935.13
2022-09-16T04:06:14.846Z,935.13
2022-09-16T04:07:14.883Z,935.12
2022-09-16T04:08:15.663Z,935.22
2022-09-16T04:09:14.863Z,935.31
2022-09-16T04:10:14.800Z,935.40
2022-09-16T04:11:14.822Z,935.36
2022-09-16T04:12:14.756Z,935.26
2022-09-16T04:13:14.816Z,935.13
2022-09-16T04:14:14.809Z,935.00
2022-09-16T04:15:14.777Z,934.87
2022-09-16T04:16:16.531Z,934.82
2022-09-16T04:17:14.742Z,934.77
2022-09-16T04:18:14.782Z,934.82
2022-09-16T04:19:14.784Z,934.84
2022-09-16T04:20:14.742Z,934.83
2022-09-16T04:21:14.705Z,934.79
2022-09-16T04:22:14.711Z,934.75
2022-09-16T04:23:14.717Z,934.69
2022-09-16T04:24:14.708Z,934.63
2022-09-16T04:25:14.710Z,934.58
2022-09-16T04:26:14.592Z,934.57
2022-09-16T04:27:14.620Z,934.64
2022-09-16T04:28:14.602Z,934.69
2022-09-16T04:29:15.168Z,934.73
2022-09-16T04:30:14.620Z,934.74
2022-09-16T04:31:14.613Z,934.69
2022-09-16T04:32:15.280Z,934.68
2022-09-16T04:33:15.579Z,934.64
2022-09-16T04:34:15.148Z,934.69
2022-09-16T04:35:14.513Z,934.75
2022-09-16T04:36:14.659Z,934.75
2022-09-16T04:37:14.595Z,934.73
2022-09-16T04:38:14.516Z,934.69
2022-09-16T04:39:14.477Z,934.65
2022-09-16T04:40:14.517Z,934.64
2022-09-16T04:41:14.458Z,934.67
2022-09-16T04:42:14.558Z,934.71
2022-09-16T04:43:14.452Z,934.70
2022-09-16T04:44:14.451Z,934.72
2022-09-16T04:45:14.404Z,934.73
2022-09-16T04:46:14.459Z,934.72
2022-09-16T04:47:14.412Z,934.67
2022-09-16T04:48:14.387Z,934.65
2022-09-16T04:49:14.338Z,934.60
2022-09-16T04:50:14.395Z,934.64
2022-09-16T04:51:14.380Z,934.60
2022-09-16T04:52:14.323Z,934.61
2022-09-16T04:53:14.350Z,934.65
2022-09-16T04:54:14.316Z,934.69
2022-09-16T04:55:14.270Z,934.71
2022-09-16T04:56:14.320Z,934.73
2022-09-16T04:57:20.483Z,934.67
2022-09-16T04:58:20.511Z,934.66
2022-09-16T04:59:15.029Z,934.64
2022-09-16T05:00:20.878Z,934.69
2022-09-16T05:01:20.462Z,934.70
2022-09-16T05:02:15.761Z,934.75
2022-09-16T05:03:20.535Z,934.79
2022-09-16T05:04:14.246Z,934.82
2022-09-16T05:05:14.203Z,934.73
2022-09-16T05:06:20.978Z,934.66
2022-09-16T05:07:22.154Z,934.61
2022-09-16T05:08:21.959Z,934.66
2022-09-16T05:09:14.134Z,934.68
2022-09-16T05:10:14.770Z,934.72
2022-09-16T05:11:15.522Z,934.74
2022-09-16T05:12:21.268Z,934.70
2022-09-16T05:13:21.810Z,934.72
2022-09-16T05:14:14.406Z,934.63
2022-09-16T05:15:14.802Z,934.56
2022-09-16T05:16:14.299Z,934.59
2022-09-16T05:17:46.428Z,934.55
2022-09-16T05:18:14.038Z,934.53
2022-09-16T05:19:16.070Z,934.54
2022-09-16T05:20:21.239Z,934.43
2022-09-16T05:21:21.158Z,934.41
2022-09-16T05:22:13.997Z,934.36
2022-09-16T05:23:13.966Z,934.40
2022-09-16T05:24:14.005Z,934.46
2022-09-16T05:25:13.951Z,934.53
2022-09-16T05:26:13.929Z,934.59
2022-09-16T05:27:14.708Z,934.61
2022-09-16T05:28:13.956Z,934.61
2022-09-16T05:29:13.905Z,934.56
2022-09-16T05:30:13.902Z,934.58
2022-09-16T05:31:13.960Z,934.57
2022-09-16T05:32:13.872Z,934.56
2022-09-16T05:33:13.908Z,934.55
2022-09-16T05:34:13.899Z,934.46
2022-09-16T05:35:13.834Z,934.44
2022-09-16T05:36:13.821Z,934.38
2022-09-16T05:37:13.823Z,934.39
2022-09-16T05:38:13.811Z,934.38
2022-09-16T05:39:29.382Z,934.39
2022-09-16T05:40:13.866Z,934.36
2022-09-16T05:41:13.777Z,934.41
2022-09-16T05:42:14.418Z,934.42
2022-09-16T05:43:13.794Z,934.39
2022-09-16T05:44:13.762Z,934.37
2022-09-16T05:45:13.735Z,934.32
2022-09-16T05:46:13.827Z,934.30
2022-09-16T05:47:13.714Z,934.31
2022-09-16T05:48:13.693Z,934.26
2022-09-16T05:49:13.662Z,934.30
2022-09-16T05:50:13.692Z,934.34
2022-09-16T05:51:16.545Z,934.35
2022-09-16T05:52:13.673Z,934.36
2022-09-16T05:53:13.632Z,934.36
2022-09-16T05:54:13.646Z,934.33
2022-09-16T05:55:13.640Z,934.30
2022-09-16T05:56:13.634Z,934.26
2022-09-16T05:57:13.632Z,934.27
2022-09-16T05:58:13.548Z,934.31
2022-09-16T05:59:13.602Z,934.38
2022-09-16T06:00:13.576Z,934.40
2022-09-16T06:01:13.573Z,934.47
2022-09-16T06:02:13.624Z,934.46
2022-09-16T06:03:13.519Z,934.46
2022-09-16T06:04:13.515Z,934.45
2022-09-16T06:05:13.521Z,934.44
2022-09-16T06:06:13.469Z,934.41
2022-09-16T06:07:13.501Z,934.44
2022-09-16T06:08:13.469Z,934.42
2022-09-16T06:09:13.428Z,934.41
2022-09-16T06:10:13.439Z,934.38
2022-09-16T06:11:13.421Z,934.39
2022-09-16T06:12:13.442Z,934.45
2022-09-16T06:13:13.386Z,934.44
2022-09-16T06:14:13.440Z,934.48
2022-09-16T06:15:13.369Z,934.45
2022-09-16T06:16:13.425Z,934.35
2022-09-16T06:17:13.367Z,934.30
2022-09-16T06:18:13.322Z,934.23
2022-09-16T06:19:13.372Z,934.20
2022-09-16T06:20:13.387Z,934.28
2022-09-16T06:21:13.313Z,934.31
2022-09-16T06:22:13.271Z,934.37
2022-09-16T06:23:13.349Z,934.35
2022-09-16T06:24:13.327Z,934.38
2022-09-16T06:25:13.279Z,934.39
2022-09-16T06:26:13.304Z,934.38
2022-09-16T06:27:13.237Z,934.36
2022-09-16T06:28:13.206Z,934.32
2022-09-16T06:29:13.237Z,934.29
2022-09-16T06:30:13.218Z,934.24
2022-09-16T06:31:13.262Z,934.21
2022-09-16T06:32:13.213Z,934.21
2022-09-16T06:33:13.144Z,934.22
2022-09-16T06:34:13.162Z,934.23
2022-09-16T06:35:13.190Z,934.30
2022-09-16T06:36:13.163Z,934.31
2022-09-16T06:37:13.135Z,934.33
2022-09-16T06:38:13.795Z,934.37
2022-09-16T06:39:13.143Z,934.34
2022-09-16T06:40:13.172Z,934.39
2022-09-16T06:41:13.127Z,934.34
2022-09-16T06:42:13.095Z,934.26
2022-09-16T06:43:13.095Z,934.21
2022-09-16T06:44:13.083Z,934.15
2022-09-16T06:45:13.072Z,934.06
2022-09-16T06:46:13.153Z,934.03
2022-09-16T06:47:12.981Z,934.03
2022-09-16T06:48:13.031Z,934.10
2022-09-16T06:49:13.057Z,934.15
2022-09-16T06:50:12.974Z,934.18
2022-09-16T06:51:12.972Z,934.24
2022-09-16T06:52:12.973Z,934.24
2022-09-16T06:53:12.933Z,934.25
2022-09-16T06:54:12.954Z,934.26
2022-09-16T06:55:12.979Z,934.29
2022-09-16T06:56:12.933Z,934.26
2022-09-16T06:57:12.893Z,934.30
2022-09-16T06:58:12.928Z,934.29
2022-09-16T06:59:12.853Z,934.27
2022-09-16T07:00:12.879Z,934.24
2022-09-16T07:01:12.931Z,934.27
2022-09-16T07:02:12.974Z,934.28
2022-09-16T07:03:12.868Z,934.30
2022-09-16T07:04:12.805Z,934.34
2022-09-16T07:05:12.857Z,934.45
2022-09-16T07:06:12.880Z,934.48
2022-09-16T07:07:18.981Z,934.49
2022-09-16T07:08:14.543Z,934.51
2022-09-16T07:09:12.736Z,934.49
2022-09-16T07:10:12.770Z,934.50
2022-09-16T07:11:12.720Z,934.47
2022-09-16T07:12:17.424Z,934.44
2022-09-16T07:13:12.738Z,934.36
2022-09-16T07:14:12.723Z,934.32
2022-09-16T07:15:12.708Z,934.24
2022-09-16T07:16:13.956Z,934.22
2022-09-16T07:17:12.743Z,934.20
2022-09-16T07:18:12.681Z,934.22
2022-09-16T07:19:13.434Z,934.20
2022-09-16T07:20:13.390Z,934.21
2022-09-16T07:21:12.633Z,934.19
2022-09-16T07:22:20.506Z,934.21
2022-09-16T07:23:12.613Z,934.32
2022-09-16T07:24:13.430Z,934.39
2022-09-16T07:25:12.566Z,934.41
2022-09-16T07:26:12.542Z,934.49
2022-09-16T07:27:12.581Z,934.47
2022-09-16T07:28:12.508Z,934.51
2022-09-16T07:29:12.562Z,934.51
2022-09-16T07:30:12.532Z,934.62
2022-09-16T07:31:12.635Z,934.64
2022-09-16T07:32:12.486Z,934.63
2022-09-16T07:33:12.529Z,934.63
2022-09-16T07:34:12.517Z,934.53
2022-09-16T07:35:12.477Z,934.43
2022-09-16T07:36:12.437Z,934.38
2022-09-16T07:37:12.515Z,934.35
2022-09-16T07:38:12.476Z,934.35
2022-09-16T07:39:12.394Z,934.32
2022-09-16T07:40:12.451Z,934.35
2022-09-16T07:41:12.389Z,934.30
2022-09-16T07:42:12.410Z,934.35
2022-09-16T07:43:12.394Z,934.33
2022-09-16T10:17:15.230Z,936.15
2022-09-16T10:18:15.941Z,936.16
2022-09-16T10:19:15.942Z,936.17
2022-09-16T10:20:16.031Z,936.18
2022-09-16T10:21:15.897Z,936.24
2022-09-16T10:22:15.900Z,936.25
2022-09-16T10:23:15.878Z,936.23
2022-09-16T10:24:15.880Z,936.18
2022-09-16T10:25:15.895Z,936.20
2022-09-16T10:26:15.845Z,936.18
2022-09-16T10:27:15.792Z,936.19
2022-09-16T10:28:15.822Z,936.29
2022-09-16T10:29:15.760Z,936.38
2022-09-16T10:30:15.920Z,936.35
2022-09-16T10:31:15.861Z,936.39
2022-09-16T10:32:15.754Z,936.36
2022-09-16T10:33:15.725Z,936.35
2022-09-16T10:34:15.789Z,936.41
2022-09-16T10:35:15.749Z,936.46
2022-09-16T10:36:15.746Z,936.52
2022-09-16T10:37:15.711Z,936.54
2022-09-16T10:38:15.682Z,936.60
2022-09-16T10:39:15.668Z,936.61
2022-09-16T10:40:15.871Z,936.62
2022-09-16T10:41:15.706Z,936.64
2022-09-16T10:42:15.630Z,936.62
2022-09-16T10:43:15.666Z,936.65
2022-09-16T10:44:17.514Z,936.68
2022-09-16T10:45:15.560Z,936.66
2022-09-16T10:46:15.710Z,936.69
2022-09-16T10:47:15.585Z,936.69
2022-09-16T10:48:15.592Z,936.74
2022-09-16T10:49:15.551Z,936.75
2022-09-16T10:50:15.598Z,936.74
2022-09-16T10:51:15.554Z,936.73
2022-09-16T10:52:15.545Z,936.73
2022-09-16T10:53:15.511Z,936.73
2022-09-16T10:54:15.540Z,936.75
2022-09-16T10:55:15.502Z,936.71
2022-09-16T10:56:15.460Z,936.71
2022-09-16T10:57:15.490Z,936.68
2022-09-16T10:58:15.481Z,936.67
2022-09-16T10:59:17.681Z,936.71
2022-09-16T11:00:15.453Z,936.75
2022-09-16T11:01:16.732Z,936.72
2022-09-16T11:02:15.625Z,936.85
2022-09-16T11:03:15.595Z,936.75
2022-09-16T11:04:15.412Z,936.76
2022-09-16T11:05:15.371Z,936.79
2022-09-16T11:06:15.338Z,936.83
2022-09-16T11:07:15.344Z,936.84
2022-09-16T11:08:15.327Z,936.88
2022-09-16T11:09:16.247Z,936.89
2022-09-16T11:10:15.351Z,936.89
2022-09-16T11:11:15.320Z,936.87
2022-09-16T11:12:15.295Z,936.82
2022-09-16T11:13:15.299Z,936.88
2022-09-16T11:14:15.299Z,936.89
2022-09-16T11:15:15.306Z,936.90
2022-09-16T11:16:15.376Z,936.86
2022-09-16T11:17:15.987Z,936.86
2022-09-16T11:25:19.058Z,936.99
2022-09-16T11:26:19.867Z,936.98
2022-09-16T11:27:19.892Z,936.94
2022-09-16T11:28:19.881Z,936.95
2022-09-16T11:29:23.147Z,936.96
2022-09-16T11:30:19.842Z,936.96
2022-09-16T11:31:19.860Z,936.98
2022-09-16T11:32:19.825Z,937.00
2022-09-16T11:33:19.856Z,937.06
2022-09-16T11:34:19.842Z,937.05
2022-09-16T11:35:19.941Z,937.10
2022-09-16T11:36:19.765Z,937.10
2022-09-16T11:37:20.472Z,937.12
2022-09-16T11:38:19.780Z,937.11
2022-09-16T11:39:19.757Z,937.13
2022-09-16T11:40:19.899Z,937.12
2022-09-16T11:41:19.702Z,937.06
2022-09-16T11:42:19.736Z,937.08
2022-09-16T11:43:20.349Z,937.12
2022-09-16T11:44:19.689Z,937.14
2022-09-16T11:45:19.655Z,937.12
2022-09-16T11:46:19.677Z,937.14
2022-09-16T11:47:19.765Z,937.20
2022-09-16T11:48:19.659Z,937.19
2022-09-16T11:49:19.646Z,937.22
2022-09-16T11:50:19.637Z,937.22
2022-09-16T11:51:19.664Z,937.22
2022-09-16T11:52:19.633Z,937.23
2022-09-16T11:53:21.759Z,937.22
2022-09-16T11:54:19.651Z,937.29
2022-09-16T11:55:20.233Z,937.31
2022-09-16T11:56:19.534Z,937.34
2022-09-16T11:57:19.576Z,937.32
2022-09-16T11:58:20.307Z,937.27
2022-09-16T11:59:19.531Z,937.21
2022-09-16T12:00:19.522Z,937.19
2022-09-16T12:01:19.517Z,937.21
2022-09-16T12:02:19.557Z,937.13
2022-09-16T12:03:19.524Z,937.18
2022-09-16T12:04:20.215Z,937.16
2022-09-16T12:05:20.578Z,937.10
2022-09-16T12:06:19.430Z,937.13
2022-09-16T12:07:19.502Z,937.14
2022-09-16T12:08:19.406Z,937.16
2022-09-16T12:09:19.440Z,937.13
2022-09-16T12:10:19.427Z,937.15
2022-09-16T12:11:19.416Z,937.18
2022-09-16T12:12:20.268Z,937.23
2022-09-16T12:13:19.352Z,937.26
2022-09-16T12:14:19.311Z,937.28
2022-09-16T12:15:19.306Z,937.35
2022-09-16T12:16:19.322Z,937.28
2022-09-16T12:17:19.302Z,937.28
2022-09-16T12:18:19.341Z,937.27
2022-09-16T12:19:19.322Z,937.26
2022-09-16T12:20:21.384Z,937.25
2022-09-16T12:21:19.279Z,937.25
2022-09-16T12:22:19.246Z,937.26
2022-09-16T12:23:19.244Z,937.26
2022-09-16T12:24:19.266Z,937.23
2022-09-16T12:25:19.254Z,937.21
2022-09-16T12:26:19.193Z,937.18
2022-09-16T12:27:19.203Z,937.20
2022-09-16T12:28:19.217Z,937.23
2022-09-16T12:29:19.246Z,937.22
2022-09-16T12:30:19.512Z,937.24
2022-09-16T12:31:23.546Z,937.27
2022-09-16T12:32:19.128Z,937.24
2022-09-16T12:33:19.192Z,937.25
2022-09-16T12:34:19.102Z,937.27
2022-09-16T12:35:19.178Z,937.30
2022-09-16T12:36:23.173Z,937.35
2022-09-16T12:37:19.059Z,937.31
2022-09-16T12:38:19.071Z,937.42
2022-09-16T12:39:19.054Z,937.43
2022-09-16T12:40:19.158Z,937.42
2022-09-16T12:41:19.084Z,937.41
2022-09-16T12:42:18.989Z,937.40
2022-09-16T12:43:18.962Z,937.44
2022-09-16T12:44:33.555Z,937.50
2022-09-16T12:45:18.953Z,937.50
2022-09-16T12:46:19.087Z,937.47
2022-09-16T12:47:18.942Z,937.48
2022-09-16T12:48:18.952Z,937.47
2022-09-16T12:49:18.927Z,937.48
2022-09-16T12:50:19.040Z,937.45
2022-09-16T12:51:18.898Z,937.45
2022-09-16T12:52:18.922Z,937.44
2022-09-16T12:53:18.851Z,937.43
2022-09-16T12:54:18.894Z,937.42
2022-09-16T12:55:18.906Z,937.39
2022-09-16T12:56:18.901Z,937.41
2022-09-16T12:57:18.872Z,937.40
2022-09-16T12:58:18.808Z,937.39
2022-09-16T12:59:18.824Z,937.44
2022-09-16T13:00:18.836Z,937.40
2022-09-16T13:01:18.792Z,937.44
2022-09-16T13:02:18.928Z,937.46
2022-09-16T13:03:18.786Z,937.51
2022-09-16T13:04:18.747Z,937.50
2022-09-16T13:05:19.335Z,937.45
2022-09-16T13:06:18.801Z,937.50
2022-09-16T13:07:18.734Z,937.46
2022-09-16T13:08:18.702Z,937.44
2022-09-16T13:09:18.713Z,937.46
2022-09-16T13:10:20.888Z,937.43
2022-09-16T13:12:06.686Z,937.48
2022-09-16T13:12:43.681Z,937.49
2022-09-16T13:13:18.730Z,937.47
2022-09-16T13:14:18.662Z,937.47
2022-09-16T13:15:18.664Z,937.53
2022-09-16T13:16:18.718Z,937.48
2022-09-16T13:17:18.619Z,937.49
2022-09-16T13:18:18.671Z,937.56
2022-09-16T13:19:18.554Z,937.55
2022-09-16T13:20:18.622Z,937.59
2022-09-16T13:21:18.602Z,937.57
2022-09-16T13:22:18.585Z,937.60
2022-09-16T13:23:18.553Z,937.58
2022-09-16T13:24:18.577Z,937.57
2022-09-16T13:25:18.586Z,937.61
2022-09-16T13:26:18.505Z,937.60
2022-09-16T13:27:18.508Z,937.63
2022-09-16T13:28:18.506Z,937.62
2022-09-16T13:29:18.517Z,937.63
2022-09-16T13:30:18.480Z,937.53
2022-09-16T13:31:18.505Z,937.59
2022-09-16T13:32:18.462Z,937.59
2022-09-16T13:33:18.488Z,937.57
2022-09-16T13:34:19.193Z,937.60
2022-09-16T13:35:18.437Z,937.63
2022-09-16T13:36:18.725Z,937.62
2022-09-16T13:37:18.434Z,937.74
2022-09-16T13:38:18.403Z,937.69
2022-09-16T13:39:18.423Z,937.72
2022-09-16T13:40:18.427Z,937.69
2022-09-16T13:41:18.319Z,937.76
2022-09-16T13:42:18.315Z,937.75
2022-09-16T13:43:18.289Z,937.78
2022-09-16T13:44:18.332Z,937.80
2022-09-16T13:45:22.026Z,937.78
2022-09-16T13:46:18.293Z,937.80
2022-09-16T13:47:18.370Z,937.82
2022-09-16T13:48:18.320Z,937.81
2022-09-16T13:49:18.292Z,937.79
2022-09-16T13:50:18.261Z,937.78
2022-09-16T13:51:18.283Z,937.77
2022-09-16T13:52:18.220Z,937.80
2022-09-16T13:53:18.260Z,937.78
2022-09-16T13:54:18.224Z,937.75
2022-09-16T13:55:18.208Z,937.78
2022-09-16T13:56:18.146Z,937.73
2022-09-16T13:57:18.141Z,937.73
2022-09-16T13:58:18.154Z,937.76
2022-09-16T13:59:18.138Z,937.69
2022-09-16T14:00:18.783Z,937.62
2022-09-16T14:01:18.174Z,937.73
2022-09-16T14:02:18.157Z,937.65
2022-09-16T14:03:18.140Z,937.61
2022-09-16T14:04:18.106Z,937.63
2022-09-16T14:05:18.073Z,937.62
2022-09-16T14:06:18.060Z,937.50
2022-09-16T14:07:18.089Z,937.60
2022-09-16T14:08:18.035Z,937.61
2022-09-16T14:09:18.001Z,937.62
2022-09-16T14:10:18.037Z,937.63
2022-09-16T14:11:18.042Z,937.63
2022-09-16T14:12:17.987Z,937.62
2022-09-16T14:13:17.997Z,937.58
2022-09-16T14:14:45.831Z,937.61
2022-09-16T14:15:17.935Z,937.51
2022-09-16T14:16:17.957Z,937.54
2022-09-16T14:17:17.967Z,937.52
2022-09-16T14:18:18.400Z,937.50
2022-09-16T14:19:17.985Z,937.47
2022-09-16T14:20:18.649Z,937.44
2022-09-16T14:21:17.850Z,937.45
2022-09-16T14:22:17.855Z,937.37
2022-09-16T14:23:17.937Z,937.39
2022-09-16T14:24:17.852Z,937.36
2022-09-16T14:25:28.582Z,937.37
2022-09-16T14:26:17.883Z,937.35
2022-09-16T14:27:17.824Z,937.37
2022-09-16T14:28:17.752Z,937.37
2022-09-16T14:29:17.829Z,937.34
2022-09-16T14:34:27.132Z,937.32
2022-09-16T14:35:27.346Z,937.34
2022-09-16T14:36:28.046Z,937.41
2022-09-16T14:37:27.382Z,937.29
2022-09-16T14:38:45.087Z,937.26
2022-09-16T14:39:27.317Z,937.28
2022-09-16T14:40:27.380Z,937.28
2022-09-16T14:41:27.272Z,937.31
2022-09-16T14:42:27.299Z,937.32
2022-09-16T14:43:27.289Z,937.30
2022-09-16T14:44:27.270Z,937.30
2022-09-16T14:45:27.540Z,937.36
2022-09-16T14:46:27.263Z,937.23
2022-09-16T14:47:47.462Z,937.24
2022-09-16T14:48:27.215Z,937.21
2022-09-16T14:49:27.204Z,937.22
2022-09-16T14:50:27.127Z,937.24
2022-09-16T14:51:27.212Z,937.21
2022-09-16T14:52:27.188Z,937.16
2022-09-16T14:53:35.344Z,937.16
2022-09-16T14:54:27.182Z,937.12
2022-09-16T14:55:27.178Z,937.14
2022-09-16T14:56:27.117Z,937.14
2022-09-16T14:57:28.079Z,937.19
2022-09-16T14:58:27.111Z,937.17
2022-09-16T14:59:27.105Z,937.20
2022-09-16T15:00:27.078Z,937.21
2022-09-16T15:01:27.094Z,937.19
2022-09-16T15:02:27.658Z,937.14
2022-09-16T15:03:27.795Z,937.18
2022-09-16T15:04:26.998Z,937.16
2022-09-16T15:05:26.993Z,937.19
2022-09-16T15:06:27.020Z,937.15
2022-09-16T15:07:26.985Z,937.15
2022-09-16T15:08:27.012Z,937.17
2022-09-16T15:09:26.940Z,937.14
2022-09-16T15:10:26.953Z,937.14
2022-09-16T15:11:46.980Z,937.14
2022-09-16T15:12:26.944Z,937.13
2022-09-16T15:13:26.930Z,937.13
2022-09-16T15:14:26.859Z,937.13
2022-09-16T15:15:26.956Z,937.15
2022-09-16T15:16:26.913Z,937.15
2022-09-16T15:17:26.894Z,937.18
2022-09-16T15:18:26.887Z,937.20
2022-09-16T15:19:26.796Z,937.19
2022-09-16T15:20:26.817Z,937.15
2022-09-16T15:21:26.804Z,937.15
2022-09-16T15:22:26.827Z,937.10
2022-09-16T15:23:26.864Z,937.14
2022-09-16T15:24:26.773Z,937.22
2022-09-16T15:25:26.805Z,937.24
2022-09-16T15:26:26.406Z,937.22
2022-09-16T15:27:26.747Z,937.17
2022-09-16T15:28:26.780Z,937.11
2022-09-16T15:29:26.722Z,937.09
2022-09-16T15:30:27.592Z,937.10
2022-09-16T15:31:26.804Z,937.05
2022-09-16T15:32:26.728Z,937.08
2022-09-16T15:33:29.951Z,937.05
2022-09-16T15:34:26.693Z,937.08
2022-09-16T15:35:26.642Z,937.06
2022-09-16T15:36:26.653Z,937.06
2022-09-16T15:37:26.669Z,937.06
2022-09-16T15:38:26.681Z,937.03
2022-09-16T15:39:26.600Z,937.03
2022-09-16T15:40:26.691Z,936.95
2022-09-16T15:41:26.616Z,936.91
2022-09-16T15:42:26.549Z,936.87
2022-09-16T15:44:50.349Z,936.89
2022-09-16T15:45:44.845Z,936.91
2022-09-16T15:46:44.831Z,936.91
2022-09-16T15:47:44.751Z,936.89
2022-09-16T15:48:44.788Z,936.90
2022-09-16T15:49:44.731Z,936.89
2022-09-16T15:50:44.765Z,936.87
2022-09-16T15:51:44.773Z,936.85
2022-09-16T15:52:45.735Z,936.84
2022-09-16T15:53:44.723Z,936.87
2022-09-16T15:54:44.745Z,936.88
2022-09-16T15:55:44.731Z,936.89
2022-09-16T15:56:45.058Z,936.88
2022-09-16T15:57:44.710Z,936.81
2022-09-16T15:58:44.689Z,936.79
2022-09-16T15:59:44.653Z,936.82
2022-09-16T16:00:44.648Z,936.82
2022-09-16T16:01:44.709Z,936.83
2022-09-16T16:02:44.847Z,936.86
2022-09-16T16:03:44.589Z,936.87
2022-09-16T16:04:44.591Z,936.88
2022-09-16T16:05:44.562Z,936.92
2022-09-16T16:06:44.615Z,936.89
2022-09-16T16:07:44.581Z,936.88
2022-09-16T16:08:44.591Z,936.85
2022-09-16T16:09:44.548Z,936.82
2022-09-16T16:10:44.514Z,936.81
2022-09-16T16:11:44.565Z,936.84
2022-09-16T16:12:44.538Z,936.87
2022-09-16T16:13:44.517Z,936.85
2022-09-16T16:14:44.469Z,936.79
2022-09-16T16:15:44.484Z,936.78
2022-09-16T16:17:11.172Z,936.76
2022-09-16T16:18:43.116Z,936.82
2022-09-16T16:19:43.541Z,936.78
2022-09-16T16:20:43.602Z,936.78
2022-09-16T16:21:43.532Z,936.79
2022-09-16T16:22:43.815Z,936.81
2022-09-16T16:23:43.524Z,936.82
2022-09-16T16:24:43.568Z,936.80
2022-09-16T16:25:43.508Z,936.77
2022-09-16T16:26:44.169Z,936.72
2022-09-16T16:27:43.475Z,936.67
2022-09-16T16:28:43.452Z,936.70
2022-09-16T16:29:43.435Z,936.71
2022-09-16T16:30:43.524Z,936.71
2022-09-16T16:31:43.417Z,936.66
2022-09-16T16:32:43.452Z,936.59
2022-09-16T16:33:44.689Z,936.56
2022-09-16T16:34:43.398Z,936.59
2022-09-16T16:35:43.408Z,936.56
2022-09-16T16:36:43.404Z,936.60
2022-09-16T16:37:47.644Z,936.55
2022-09-16T16:38:43.354Z,936.55
2022-09-16T16:39:44.087Z,936.52
2022-09-16T16:40:43.370Z,936.54
2022-09-16T16:41:43.288Z,936.49
2022-09-16T16:42:43.735Z,936.48
2022-09-16T16:43:43.283Z,936.47
2022-09-16T16:44:43.301Z,936.52
2022-09-16T16:45:43.288Z,936.55
2022-09-16T16:46:43.264Z,936.53
2022-09-16T16:47:43.191Z,936.54
2022-09-16T16:48:43.247Z,936.52
2022-09-16T16:49:43.261Z,936.53
2022-09-16T16:50:43.224Z,936.53
2022-09-16T16:51:43.199Z,936.58
2022-09-16T16:52:43.238Z,936.56
2022-09-16T16:53:43.131Z,936.58
2022-09-16T16:54:43.136Z,936.56
2022-09-16T16:55:43.261Z,936.59
2022-09-16T16:56:43.171Z,936.60
2022-09-16T16:57:43.107Z,936.58
2022-09-16T16:58:43.382Z,936.55
2022-09-16T16:59:43.086Z,936.55
2022-09-16T17:00:43.064Z,936.51
2022-09-16T17:01:47.941Z,936.50
2022-09-16T17:02:43.408Z,936.41
2022-09-16T17:03:43.032Z,936.39
2022-09-16T17:04:43.012Z,936.43
2022-09-16T17:05:42.980Z,936.38
2022-09-16T17:06:42.991Z,936.39
2022-09-16T17:07:43.034Z,936.39
2022-09-16T17:08:43.056Z,936.39
2022-09-16T17:09:42.965Z,936.40
2022-09-16T17:10:42.965Z,936.35
2022-09-16T17:11:42.967Z,936.33
2022-09-16T17:12:42.940Z,936.35
2022-09-16T17:13:42.927Z,936.32
2022-09-16T17:14:42.887Z,936.31
2022-09-16T17:15:42.977Z,936.34
2022-09-16T17:16:42.878Z,936.30
2022-09-16T17:17:42.870Z,936.34
2022-09-16T17:18:42.879Z,936.35
2022-09-16T17:19:42.816Z,936.38
2022-09-16T17:20:42.901Z,936.33
2022-09-16T17:21:42.867Z,936.33
2022-09-16T17:22:42.824Z,936.27
2022-09-16T17:23:42.785Z,936.27
2022-09-16T17:24:42.824Z,936.25
2022-09-16T17:25:42.768Z,936.23